createdAt,value
2019-04-30T00:01:18.882Z,11.21
2019-04-30T00:03:55.741Z,11.24
2019-04-30T00:06:34.097Z,11.25
2019-04-30T00:09:00.135Z,11.26
2019-04-30T00:11:31.644Z,11.28
2019-04-30T00:14:05.508Z,11.24
2019-04-30T00:16:39.880Z,11.18
2019-04-30T00:19:10.719Z,11.29
2019-04-30T00:21:42.730Z,11.28
2019-04-30T00:24:13.649Z,11.26
2019-04-30T00:26:51.844Z,11.19
2019-04-30T00:29:26.542Z,11.22
2019-04-30T00:31:51.444Z,11.22
2019-04-30T00:34:24.888Z,11.24
2019-04-30T00:36:56.106Z,11.21
2019-04-30T00:39:27.274Z,11.22
2019-04-30T00:41:58.723Z,11.16
2019-04-30T00:44:29.618Z,11.19
2019-04-30T00:47:04.921Z,11.16
2019-04-30T00:49:35.067Z,11.18
2019-04-30T00:52:06.719Z,11.23
2019-04-30T00:54:37.547Z,11.24
2019-04-30T00:57:08.625Z,11.17
2019-04-30T00:59:39.814Z,11.22
2019-04-30T01:02:32.151Z,11.24
2019-04-30T01:05:09.718Z,11.22
2019-04-30T01:07:48.679Z,11.25
2019-04-30T01:10:15.301Z,11.26
2019-04-30T01:12:49.991Z,11.26
2019-04-30T01:15:21.079Z,11.33
2019-04-30T01:17:53.947Z,11.38
2019-04-30T01:20:31.397Z,11.42
2019-04-30T01:23:03.068Z,11.38
2019-04-30T01:25:33.735Z,11.38
2019-04-30T01:28:06.226Z,11.43
2019-04-30T01:30:39.297Z,11.39
2019-04-30T01:33:11.144Z,11.40
2019-04-30T01:35:42.660Z,11.42
2019-04-30T01:38:13.573Z,11.47
2019-04-30T01:40:47.427Z,11.39
2019-04-30T01:43:23.200Z,11.46
2019-04-30T01:45:51.426Z,11.49
2019-04-30T01:48:23.019Z,11.46
2019-04-30T01:50:54.393Z,11.48
2019-04-30T01:53:25.800Z,11.43
2019-04-30T01:56:10.387Z,11.41
2019-04-30T01:58:43.133Z,11.42
2019-04-30T02:01:19.208Z,11.43
2019-04-30T02:03:50.793Z,11.46
2019-04-30T02:06:22.301Z,11.49
2019-04-30T02:08:53.794Z,11.52
2019-04-30T02:11:25.259Z,11.51
2019-04-30T02:13:56.836Z,11.53
2019-04-30T02:16:28.923Z,11.53
2019-04-30T02:19:00.630Z,11.55
2019-04-30T02:21:33.452Z,11.57
2019-04-30T02:24:05.090Z,11.64
2019-04-30T02:26:38.390Z,11.70
2019-04-30T02:29:09.753Z,11.72
2019-04-30T02:31:40.884Z,11.71
2019-04-30T02:34:13.796Z,11.65
2019-04-30T02:37:02.245Z,11.70
2019-04-30T02:39:33.641Z,11.68
2019-04-30T02:42:05.138Z,11.68
2019-04-30T02:44:40.553Z,11.68
2019-04-30T02:47:11.432Z,11.63
2019-04-30T02:49:43.386Z,11.67
2019-04-30T02:52:19.558Z,11.66
2019-04-30T02:54:50.595Z,11.74
2019-04-30T02:57:23.513Z,11.72
2019-04-30T03:00:09.889Z,11.67
2019-04-30T03:02:41.855Z,11.73
2019-04-30T03:05:14.050Z,11.74
2019-04-30T03:07:45.763Z,11.73
2019-04-30T03:10:19.779Z,11.73
2019-04-30T03:12:50.456Z,11.72
2019-04-30T03:15:22.853Z,11.67
2019-04-30T03:18:12.413Z,11.68
2019-04-30T03:20:59.866Z,11.68
2019-04-30T03:23:30.806Z,11.73
2019-04-30T03:26:02.657Z,11.73
2019-04-30T03:28:33.589Z,11.70
2019-04-30T03:31:05.042Z,11.66
2019-04-30T03:33:36.536Z,11.73
2019-04-30T03:36:11.940Z,11.77
2019-04-30T03:38:42.802Z,11.80
2019-04-30T03:41:14.141Z,11.86
2019-04-30T03:43:45.561Z,11.89
2019-04-30T03:46:19.472Z,11.83
2019-04-30T03:48:51.117Z,11.89
2019-04-30T03:51:22.008Z,11.93
2019-04-30T03:53:53.197Z,11.85
2019-04-30T03:56:25.768Z,11.94
2019-04-30T03:59:00.252Z,11.95
2019-04-30T04:01:39.925Z,11.96
2019-04-30T04:04:30.992Z,11.91
2019-04-30T04:07:04.182Z,11.99
2019-04-30T04:09:46.045Z,12.07
2019-04-30T04:12:29.998Z,12.05
2019-04-30T04:15:03.810Z,12.10
2019-04-30T04:17:35.414Z,12.16
2019-04-30T04:20:06.942Z,12.21
2019-04-30T04:22:40.292Z,12.25
2019-04-30T04:25:13.407Z,12.21
2019-04-30T04:27:45.025Z,12.16
2019-04-30T04:30:16.489Z,12.14
2019-04-30T04:32:50.085Z,12.14
2019-04-30T04:35:21.019Z,12.14
2019-04-30T04:37:52.590Z,12.15
2019-04-30T04:40:23.375Z,12.11
2019-04-30T04:42:54.586Z,11.97
2019-04-30T04:45:26.096Z,12.14
2019-04-30T04:47:59.755Z,12.25
2019-04-30T04:50:30.834Z,12.37
2019-04-30T04:53:02.213Z,12.50
2019-04-30T04:55:34.770Z,12.60
2019-04-30T04:58:05.721Z,12.66
2019-04-30T05:00:39.086Z,12.63
2019-04-30T05:03:20.719Z,12.77
2019-04-30T05:05:52.097Z,12.84
2019-04-30T05:08:23.492Z,12.96
2019-04-30T05:11:12.029Z,12.96
2019-04-30T05:14:08.348Z,13.03
2019-04-30T05:16:48.774Z,13.11
2019-04-30T05:19:21.475Z,13.42
2019-04-30T05:21:53.945Z,13.60
2019-04-30T05:24:25.417Z,13.61
2019-04-30T05:26:56.357Z,13.62
2019-04-30T05:29:28.951Z,13.51
2019-04-30T05:32:00.546Z,13.46
2019-04-30T05:34:31.992Z,13.54
2019-04-30T05:37:03.510Z,13.61
2019-04-30T05:39:34.298Z,13.67
2019-04-30T05:42:05.468Z,13.91
2019-04-30T05:44:36.202Z,14.15
2019-04-30T05:47:09.278Z,14.19
2019-04-30T05:49:41.044Z,14.13
2019-04-30T05:52:12.477Z,14.13
2019-04-30T05:54:44.142Z,14.08
2019-04-30T05:57:15.666Z,14.01
2019-04-30T05:59:48.756Z,13.98
2019-04-30T06:02:20.105Z,13.96
2019-04-30T06:04:50.980Z,13.98
2019-04-30T06:07:22.020Z,13.96
2019-04-30T06:10:00.808Z,14.01
2019-04-30T06:12:49.305Z,14.02
2019-04-30T06:15:29.059Z,14.07
2019-04-30T06:18:10.423Z,14.17
2019-04-30T06:20:33.897Z,14.13
2019-04-30T06:23:04.802Z,14.19
2019-04-30T06:25:52.889Z,14.17
2019-04-30T06:28:09.744Z,14.30
2019-04-30T06:30:41.186Z,14.41
2019-04-30T06:33:12.564Z,14.64
2019-04-30T06:35:43.960Z,14.80
2019-04-30T06:38:15.371Z,14.90
2019-04-30T06:40:48.740Z,15.00
2019-04-30T06:43:20.015Z,15.01
2019-04-30T06:45:51.209Z,14.92
2019-04-30T06:48:22.620Z,14.86
2019-04-30T06:50:54.054Z,14.99
2019-04-30T06:53:24.921Z,15.04
2019-04-30T06:55:56.250Z,15.08
2019-04-30T06:58:29.122Z,15.23
2019-04-30T07:01:00.633Z,15.35
2019-04-30T07:03:31.490Z,15.43
2019-04-30T07:06:02.601Z,15.65
2019-04-30T07:08:39.835Z,15.66
2019-04-30T07:11:26.438Z,15.93
2019-04-30T07:14:00.006Z,15.99
2019-04-30T07:16:30.982Z,16.18
2019-04-30T07:19:01.817Z,16.36
2019-04-30T07:21:36.565Z,16.37
2019-04-30T07:24:06.136Z,16.46
2019-04-30T07:26:38.892Z,16.48
2019-04-30T07:29:10.496Z,16.40
2019-04-30T07:31:41.979Z,16.60
2019-04-30T07:34:13.386Z,16.38
2019-04-30T07:36:49.130Z,16.47
2019-04-30T07:39:19.197Z,16.78
2019-04-30T07:41:50.676Z,16.98
2019-04-30T07:44:31.089Z,17.12
2019-04-30T07:46:55.191Z,17.21
2019-04-30T07:49:45.949Z,17.30
2019-04-30T07:52:01.499Z,17.38
2019-04-30T07:54:32.647Z,17.46
2019-04-30T07:57:03.945Z,17.58
2019-04-30T07:59:36.433Z,17.61
2019-04-30T08:02:13.820Z,17.51
2019-04-30T08:04:45.354Z,17.64
2019-04-30T08:07:16.727Z,17.82
2019-04-30T08:09:49.321Z,17.92
2019-04-30T08:12:29.816Z,17.85
2019-04-30T08:14:54.151Z,17.97
2019-04-30T08:17:25.491Z,17.98
2019-04-30T08:19:58.633Z,18.00
2019-04-30T08:22:29.910Z,17.89
2019-04-30T08:25:00.710Z,18.07
2019-04-30T08:27:31.749Z,18.02
2019-04-30T08:30:03.100Z,18.10
2019-04-30T08:32:35.095Z,18.17
2019-04-30T08:35:09.396Z,18.31
2019-04-30T08:37:40.658Z,18.34
2019-04-30T08:40:12.068Z,18.37
2019-04-30T08:42:42.764Z,18.46
2019-04-30T08:45:13.880Z,18.46
2019-04-30T08:47:44.611Z,18.63
2019-04-30T08:50:15.728Z,18.73
2019-04-30T08:52:49.030Z,18.88
2019-04-30T08:55:22.440Z,18.99
2019-04-30T08:58:06.577Z,19.15
2019-04-30T09:00:29.597Z,19.19
2019-04-30T09:03:00.574Z,19.21
2019-04-30T09:05:38.529Z,19.05
2019-04-30T09:08:11.228Z,19.16
2019-04-30T09:10:42.643Z,19.09
2019-04-30T09:13:13.978Z,19.24
2019-04-30T09:15:44.810Z,19.27
2019-04-30T09:18:16.030Z,19.12
2019-04-30T09:20:49.380Z,19.32
2019-04-30T09:23:20.559Z,19.37
2019-04-30T09:25:51.905Z,19.21
2019-04-30T09:28:23.271Z,19.46
2019-04-30T09:30:54.725Z,19.50
2019-04-30T09:33:26.112Z,19.55
2019-04-30T09:35:59.413Z,19.67
2019-04-30T09:38:30.458Z,19.51
2019-04-30T09:41:01.252Z,19.63
2019-04-30T09:43:32.432Z,19.32
2019-04-30T09:46:15.499Z,19.61
2019-04-30T09:48:38.621Z,19.72
2019-04-30T09:51:11.592Z,19.94
2019-04-30T09:53:55.390Z,20.09
2019-04-30T09:56:16.591Z,20.19
2019-04-30T09:58:49.241Z,20.12
2019-04-30T10:01:22.139Z,20.17
2019-04-30T10:03:54.156Z,20.18
2019-04-30T10:06:37.147Z,20.23
2019-04-30T10:08:59.739Z,20.25
2019-04-30T10:11:32.841Z,20.28
2019-04-30T10:14:04.409Z,20.42
2019-04-30T10:16:36.725Z,20.51
2019-04-30T10:19:10.115Z,20.24
2019-04-30T10:21:42.347Z,20.21
2019-04-30T10:24:15.789Z,20.20
2019-04-30T10:26:46.756Z,20.28
2019-04-30T10:29:18.878Z,20.43
2019-04-30T10:31:50.962Z,20.55
2019-04-30T10:34:22.444Z,20.49
2019-04-30T10:36:53.809Z,20.31
2019-04-30T10:39:25.259Z,20.44
2019-04-30T10:41:56.791Z,20.65
2019-04-30T10:44:29.683Z,20.71
2019-04-30T10:47:00.459Z,20.59
2019-04-30T10:49:31.816Z,20.44
2019-04-30T10:52:03.161Z,20.47
2019-04-30T10:54:35.502Z,20.67
2019-04-30T10:57:06.273Z,20.35
2019-04-30T10:59:37.353Z,20.24
2019-04-30T11:02:09.108Z,20.26
2019-04-30T11:04:40.661Z,20.41
2019-04-30T11:07:11.987Z,20.47
2019-04-30T11:09:43.320Z,20.32
2019-04-30T11:12:14.112Z,20.25
2019-04-30T11:14:45.201Z,20.35
2019-04-30T11:17:16.711Z,20.45
2019-04-30T11:19:49.255Z,20.30
2019-04-30T11:22:20.998Z,20.43
2019-04-30T11:24:59.022Z,20.47
2019-04-30T11:27:24.804Z,20.29
2019-04-30T11:30:01.492Z,20.38
2019-04-30T11:32:30.773Z,20.52
2019-04-30T11:35:02.261Z,20.36
2019-04-30T11:37:33.832Z,20.64
2019-04-30T11:40:08.098Z,20.58
2019-04-30T11:42:39.470Z,20.35
2019-04-30T11:45:11.410Z,20.61
2019-04-30T11:47:53.088Z,20.57
2019-04-30T11:50:15.999Z,20.72
2019-04-30T11:52:47.430Z,20.46
2019-04-30T11:55:19.349Z,20.54
2019-04-30T11:57:50.615Z,20.37
2019-04-30T12:00:23.648Z,20.57
2019-04-30T12:02:55.110Z,20.36
2019-04-30T12:05:25.865Z,20.53
2019-04-30T12:08:14.615Z,20.14
2019-04-30T12:10:47.503Z,20.16
2019-04-30T12:13:30.267Z,20.25
2019-04-30T12:16:01.755Z,20.23
2019-04-30T12:18:33.360Z,20.29
2019-04-30T12:21:04.210Z,20.20
2019-04-30T12:23:35.274Z,20.20
2019-04-30T12:26:06.153Z,20.24
2019-04-30T12:28:37.213Z,20.16
2019-04-30T12:31:09.775Z,20.32
2019-04-30T12:33:40.877Z,20.05
2019-04-30T12:36:12.165Z,20.11
2019-04-30T12:38:43.662Z,20.12
2019-04-30T12:41:15.112Z,19.97
2019-04-30T12:43:46.460Z,19.87
2019-04-30T12:46:21.036Z,19.95
2019-04-30T12:48:51.721Z,19.71
2019-04-30T12:51:31.866Z,19.81
2019-04-30T12:54:04.909Z,19.88
2019-04-30T12:56:37.768Z,19.88
2019-04-30T12:59:09.081Z,20.08
2019-04-30T13:01:40.474Z,19.96
2019-04-30T13:04:11.874Z,20.06
2019-04-30T13:06:42.986Z,19.97
2019-04-30T13:09:15.390Z,19.84
2019-04-30T13:11:48.239Z,20.11
2019-04-30T13:14:21.194Z,20.08
2019-04-30T13:16:52.700Z,19.84
2019-04-30T13:19:24.098Z,19.84
2019-04-30T13:21:54.894Z,19.84
2019-04-30T13:24:26.058Z,19.48
2019-04-30T13:26:56.819Z,19.69
2019-04-30T13:29:29.419Z,19.48
2019-04-30T13:32:00.812Z,19.51
2019-04-30T13:34:51.263Z,19.73
2019-04-30T13:37:22.258Z,19.57
2019-04-30T13:39:57.631Z,19.61
2019-04-30T13:42:30.312Z,19.66
2019-04-30T13:45:01.933Z,19.63
2019-04-30T13:47:33.318Z,19.54
2019-04-30T13:50:05.147Z,19.78
2019-04-30T13:52:36.615Z,19.74
2019-04-30T13:55:10.671Z,19.57
2019-04-30T13:57:41.131Z,19.32
2019-04-30T14:00:14.036Z,19.16
2019-04-30T14:02:47.208Z,19.25
2019-04-30T14:05:18.752Z,19.12
2019-04-30T14:07:59.729Z,19.10
2019-04-30T14:10:32.395Z,19.01
2019-04-30T14:13:04.419Z,19.06
2019-04-30T14:15:36.428Z,18.81
2019-04-30T14:18:09.374Z,18.89
2019-04-30T14:20:41.781Z,19.08
2019-04-30T14:23:13.300Z,18.81
2019-04-30T14:25:55.813Z,18.83
2019-04-30T14:28:16.803Z,18.82
2019-04-30T14:30:48.151Z,18.84
2019-04-30T14:33:26.333Z,18.99
2019-04-30T14:35:52.569Z,18.72
2019-04-30T14:38:23.926Z,18.64
2019-04-30T14:40:55.807Z,18.51
2019-04-30T14:43:29.922Z,18.51
2019-04-30T14:46:10.294Z,18.35
2019-04-30T14:48:47.916Z,18.11
2019-04-30T14:51:19.547Z,18.25
2019-04-30T14:53:51.876Z,18.22
2019-04-30T14:56:23.922Z,18.25
2019-04-30T14:58:56.555Z,18.02
2019-04-30T15:01:38.677Z,17.97
2019-04-30T15:04:10.683Z,17.93
2019-04-30T15:06:42.234Z,17.88
2019-04-30T15:09:14.148Z,17.78
2019-04-30T15:11:45.603Z,17.56
2019-04-30T15:14:16.483Z,17.52
2019-04-30T15:16:47.782Z,17.27
2019-04-30T15:19:18.574Z,17.21
2019-04-30T15:21:49.721Z,17.05
2019-04-30T15:24:22.089Z,17.06
2019-04-30T15:26:57.664Z,16.98
2019-04-30T15:29:25.195Z,16.90
2019-04-30T15:31:56.607Z,16.93
2019-04-30T15:34:29.362Z,16.96
2019-04-30T15:37:01.029Z,16.82
2019-04-30T15:39:33.899Z,16.66
2019-04-30T15:42:05.287Z,16.55
2019-04-30T15:44:40.104Z,16.57
2019-04-30T15:47:09.925Z,16.58
2019-04-30T15:49:40.619Z,16.45
2019-04-30T15:52:11.833Z,16.34
2019-04-30T15:54:43.223Z,16.24
2019-04-30T15:57:14.617Z,16.00
2019-04-30T15:59:45.973Z,16.09
2019-04-30T16:02:18.951Z,15.99
2019-04-30T16:05:09.296Z,15.98
2019-04-30T16:07:51.556Z,15.95
2019-04-30T16:10:41.544Z,15.76
2019-04-30T16:13:19.390Z,15.67
2019-04-30T16:15:50.600Z,15.63
2019-04-30T16:18:22.269Z,15.79
2019-04-30T16:20:59.438Z,15.84
2019-04-30T16:23:32.095Z,15.64
2019-04-30T16:26:03.888Z,15.54
2019-04-30T16:28:36.453Z,15.64
2019-04-30T16:31:08.154Z,15.58
2019-04-30T16:33:40.151Z,15.36
2019-04-30T16:36:11.584Z,15.22
2019-04-30T16:38:43.438Z,15.10
2019-04-30T16:41:14.228Z,15.09
2019-04-30T16:43:45.438Z,14.87
2019-04-30T16:46:16.812Z,14.92
2019-04-30T16:48:49.286Z,14.96
2019-04-30T16:51:21.352Z,14.79
2019-04-30T16:53:52.796Z,14.61
2019-04-30T16:56:23.675Z,14.78
2019-04-30T16:59:02.438Z,14.88
2019-04-30T17:01:34.850Z,14.88
2019-04-30T17:04:20.144Z,14.79
2019-04-30T17:06:53.194Z,14.67
2019-04-30T17:09:42.404Z,14.69
2019-04-30T17:12:19.699Z,14.60
2019-04-30T17:14:52.974Z,14.45
2019-04-30T17:17:24.335Z,14.42
2019-04-30T17:19:55.768Z,14.38
2019-04-30T17:22:27.170Z,14.42
2019-04-30T17:24:58.040Z,14.29
2019-04-30T17:27:29.468Z,14.10
2019-04-30T17:30:01.701Z,14.12
2019-04-30T17:32:34.293Z,14.07
2019-04-30T17:35:09.019Z,14.02
2019-04-30T17:37:40.644Z,13.86
2019-04-30T17:40:13.166Z,13.94
2019-04-30T17:42:43.995Z,13.89
2019-04-30T17:45:15.069Z,13.51
2019-04-30T17:47:46.695Z,13.50
2019-04-30T17:50:18.753Z,13.33
2019-04-30T17:52:50.419Z,13.29
2019-04-30T17:55:21.834Z,13.27
2019-04-30T17:57:54.990Z,13.14
2019-04-30T18:00:29.285Z,13.03
2019-04-30T18:03:00.835Z,13.14
2019-04-30T18:05:32.258Z,13.07
2019-04-30T18:08:03.602Z,13.03
2019-04-30T18:10:35.803Z,13.07
2019-04-30T18:13:07.330Z,13.14
2019-04-30T18:15:38.728Z,13.10
2019-04-30T18:18:23.779Z,13.13
2019-04-30T18:21:02.642Z,13.13
2019-04-30T18:23:51.796Z,13.02
2019-04-30T18:26:23.180Z,13.06
2019-04-30T18:28:55.588Z,12.92
2019-04-30T18:31:27.196Z,12.88
2019-04-30T18:33:59.350Z,12.74
2019-04-30T18:36:31.109Z,12.75
2019-04-30T18:39:01.956Z,12.71
2019-04-30T18:41:34.579Z,12.56
2019-04-30T18:44:05.417Z,12.63
2019-04-30T18:46:36.635Z,12.57
2019-04-30T18:49:08.062Z,12.77
2019-04-30T18:51:42.709Z,12.89
2019-04-30T18:54:12.747Z,12.96
2019-04-30T18:56:44.228Z,12.93
2019-04-30T18:59:15.549Z,12.93
2019-04-30T19:01:47.073Z,12.82
2019-04-30T19:04:18.953Z,12.84
2019-04-30T19:06:52.334Z,12.94
2019-04-30T19:09:40.352Z,12.94
2019-04-30T19:12:19.533Z,12.85
2019-04-30T19:15:08.601Z,12.77
2019-04-30T19:17:41.658Z,12.59
2019-04-30T19:20:18.786Z,12.57
2019-04-30T19:22:50.307Z,12.51
2019-04-30T19:25:21.115Z,12.62
2019-04-30T19:27:53.291Z,12.58
2019-04-30T19:30:24.721Z,12.68
2019-04-30T19:32:56.164Z,12.70
2019-04-30T19:35:27.560Z,12.71
2019-04-30T19:37:59.298Z,12.83
2019-04-30T19:40:30.763Z,12.82
2019-04-30T19:43:03.770Z,12.69
2019-04-30T19:45:35.958Z,12.71
2019-04-30T19:48:09.011Z,12.69
2019-04-30T19:50:43.518Z,12.66
2019-04-30T19:53:15.949Z,12.66
2019-04-30T19:55:49.126Z,12.69
2019-04-30T19:58:29.535Z,12.61
2019-04-30T20:00:53.528Z,12.54
2019-04-30T20:03:25.032Z,12.52
2019-04-30T20:05:58.587Z,12.52
2019-04-30T20:08:30.171Z,12.49
2019-04-30T20:11:01.553Z,12.42
2019-04-30T20:13:37.068Z,12.54
2019-04-30T20:16:05.175Z,12.48
2019-04-30T20:18:36.703Z,12.51
2019-04-30T20:21:09.637Z,12.51
2019-04-30T20:23:42.152Z,12.52
2019-04-30T20:26:13.643Z,12.45
2019-04-30T20:28:44.983Z,12.43
2019-04-30T20:31:16.382Z,12.50
2019-04-30T20:33:48.981Z,12.29
2019-04-30T20:36:20.495Z,12.23
2019-04-30T20:38:54.490Z,12.30
2019-04-30T20:41:28.579Z,12.30
2019-04-30T20:44:00.123Z,12.33
2019-04-30T20:46:35.181Z,12.29
2019-04-30T20:49:04.655Z,12.36
2019-04-30T20:51:35.989Z,12.35
2019-04-30T20:54:09.130Z,12.34
2019-04-30T20:56:40.558Z,12.23
2019-04-30T20:59:11.970Z,12.28
2019-04-30T21:01:43.354Z,12.16
2019-04-30T21:04:15.943Z,12.11
2019-04-30T21:06:49.514Z,12.12
2019-04-30T21:09:20.405Z,12.10
2019-04-30T21:11:51.774Z,11.97
2019-04-30T21:14:23.143Z,11.96
2019-04-30T21:16:54.529Z,12.07
2019-04-30T21:19:25.979Z,11.98
2019-04-30T21:21:57.316Z,11.83
2019-04-30T21:24:28.704Z,11.75
2019-04-30T21:27:00.110Z,11.86
2019-04-30T21:29:31.614Z,11.87
2019-04-30T21:32:16.839Z,11.82
2019-04-30T21:34:54.479Z,11.80
2019-04-30T21:37:26.163Z,11.87
2019-04-30T21:39:58.597Z,11.84
2019-04-30T21:42:30.163Z,11.83
2019-04-30T21:45:01.572Z,11.76
2019-04-30T21:47:34.016Z,11.67
2019-04-30T21:50:09.958Z,11.67
2019-04-30T21:52:40.662Z,11.67
2019-04-30T21:55:12.024Z,11.67
2019-04-30T21:57:44.485Z,11.69
2019-04-30T22:00:18.532Z,11.80
2019-04-30T22:02:51.506Z,11.82
2019-04-30T22:05:22.886Z,11.75
2019-04-30T22:07:54.329Z,11.75
2019-04-30T22:10:27.056Z,11.78
2019-04-30T22:12:58.725Z,11.77
2019-04-30T22:15:30.216Z,11.78
2019-04-30T22:18:01.518Z,11.75
2019-04-30T22:20:32.981Z,11.75
2019-04-30T22:23:04.385Z,11.81
2019-04-30T22:25:35.779Z,11.81
2019-04-30T22:28:07.166Z,11.80
2019-04-30T22:30:39.129Z,11.81
2019-04-30T22:33:10.875Z,11.89
2019-04-30T22:35:50.232Z,11.84
2019-04-30T22:38:32.207Z,11.89
2019-04-30T22:41:03.537Z,11.91
2019-04-30T22:43:34.894Z,11.91
2019-04-30T22:46:09.624Z,11.92
2019-04-30T22:48:40.832Z,11.93
2019-04-30T22:51:12.197Z,11.88
2019-04-30T22:53:43.573Z,11.84
2019-04-30T22:56:16.118Z,11.85
2019-04-30T22:58:47.449Z,11.85
2019-04-30T23:01:20.510Z,11.83
2019-04-30T23:03:53.414Z,11.93
2019-04-30T23:06:24.816Z,11.95
2019-04-30T23:08:56.166Z,11.96
2019-04-30T23:11:27.590Z,11.95
2019-04-30T23:13:58.975Z,11.97
2019-04-30T23:16:30.415Z,11.94
2019-04-30T23:19:01.805Z,11.94
2019-04-30T23:21:33.175Z,11.97
2019-04-30T23:24:04.677Z,12.04
2019-04-30T23:26:36.077Z,12.02
2019-04-30T23:29:07.484Z,11.95
2019-04-30T23:31:38.893Z,11.86
2019-04-30T23:34:17.779Z,11.85
2019-04-30T23:36:44.409Z,11.83
2019-04-30T23:39:15.791Z,11.83
2019-04-30T23:41:47.160Z,11.72
2019-04-30T23:44:18.605Z,11.69
2019-04-30T23:46:50.062Z,11.76
2019-04-30T23:49:21.462Z,11.77
2019-04-30T23:51:52.920Z,11.76
2019-04-30T23:54:24.308Z,11.76
2019-04-30T23:56:55.783Z,11.74
2019-04-30T23:59:27.164Z,11.68
